Time;durP1;ratioP1;P1;durP2;ratioP2;P2;SDS_P1;SDS_P2;PMS_P1;PMS_P2;Temp;Humidity;BMP_temperature;BMP_pressure;BME280_temperature;BME280_humidity;BME280_pressure;Samples;Min_cycle;Max_cycle;Signal;HPM_P1;HPM_P2
2023/10/17 00:04:50;;;;;;;3.88;2.20;;;;;;;4.62;64.34;100306.34;10424392;28;20412;-59
2023/10/17 00:09:54;;;;;;;3.90;2.60;;;;;;;4.65;64.06;100295.91;10427332;28;20495;-59
2023/10/17 00:19:58;;;;;;;3.25;2.20;;;;;;;4.41;63.97;100296.59;10424321;28;20055;-59
2023/10/17 00:25:09;;;;;;;4.82;2.38;;;;;;;4.16;64.21;100290.44;10424525;28;20037;-59
2023/10/17 00:30:19;;;;;;;4.32;2.33;;;;;;;3.97;64.70;100304.75;10424177;28;20037;-59
2023/10/17 00:35:25;;;;;;;6.35;2.33;;;;;;;3.96;65.03;100305.66;10425356;28;20045;-59
2023/10/17 00:40:34;;;;;;;6.60;2.47;;;;;;;4.12;64.85;100293.16;10438653;28;20099;-59
2023/10/17 00:45:36;;;;;;;4.60;2.55;;;;;;;4.15;64.75;100278.38;10405927;28;20052;-59
2023/10/17 00:50:39;;;;;;;6.53;2.47;;;;;;;4.05;64.33;100276.94;10390007;28;20048;-59
2023/10/17 00:55:52;;;;;;;5.45;2.65;;;;;;;3.92;64.60;100277.31;10391952;28;20053;-59
2023/10/17 01:01:15;;;;;;;5.30;2.58;;;;;;;3.91;64.62;100276.47;10423811;28;20068;-59
2023/10/17 01:11:38;;;;;;;3.90;2.28;;;;;;;4.05;64.70;100292.47;10423517;28;20041;-59
2023/10/17 01:16:43;;;;;;;4.80;2.58;;;;;;;3.90;64.37;100287.72;10405794;28;20497;-59
2023/10/17 01:21:45;;;;;;;6.68;2.10;;;;;;;3.88;64.67;100279.97;10422933;28;20049;-59
2023/10/17 01:26:47;;;;;;;4.28;2.10;;;;;;;3.85;64.64;100289.56;10388862;28;20759;-59
2023/10/17 01:31:50;;;;;;;5.05;2.47;;;;;;;4.01;64.45;100277.91;10404680;28;20575;-59
2023/10/17 01:36:55;;;;;;;3.83;2.15;;;;;;;3.92;64.52;100277.31;10420481;28;20413;-59
2023/10/17 01:41:57;;;;;;;3.47;1.80;;;;;;;3.91;64.54;100284.22;10389417;28;20049;-59
2023/10/17 01:46:59;;;;;;;5.53;2.85;;;;;;;4.00;64.59;100302.09;10406213;28;20052;-59
2023/10/17 01:52:01;;;;;;;4.60;2.63;;;;;;;4.00;64.66;100298.66;10421143;28;20049;-59
2023/10/17 01:57:07;;;;;;;3.90;2.33;;;;;;;4.01;64.48;100287.41;10421363;28;20045;-59
2023/10/17 02:02:09;;;;;;;4.30;2.10;;;;;;;4.07;64.54;100280.31;10407032;28;20045;-59
2023/10/17 02:07:11;;;;;;;5.78;2.25;;;;;;;4.16;64.29;100272.31;10430225;28;20037;-59
2023/10/17 02:12:13;;;;;;;5.82;2.47;;;;;;;4.24;64.10;100254.81;10428307;28;20519;-59
2023/10/17 02:17:16;;;;;;;4.25;2.33;;;;;;;4.20;63.94;100260.13;10428662;28;20037;-59
2023/10/17 02:22:18;;;;;;;4.20;2.10;;;;;;;4.15;64.17;100277.53;10428666;28;20136;-59
2023/10/17 02:27:21;;;;;;;4.63;2.10;;;;;;;4.20;64.21;100257.53;10394323;28;20041;-59
2023/10/17 02:32:23;;;;;;;3.22;1.95;;;;;;;4.15;64.01;100252.47;10428188;28;20057;-59
2023/10/17 02:37:29;;;;;;;3.17;1.83;;;;;;;4.07;64.14;100256.22;10429347;28;20521;-59
2023/10/17 02:42:31;;;;;;;3.38;2.00;;;;;;;4.15;64.33;100265.44;10428917;28;20037;-59
2023/10/17 02:47:35;;;;;;;3.47;2.25;;;;;;;4.17;64.08;100257.66;10412430;28;20549;-59
2023/10/17 02:52:37;;;;;;;4.15;2.03;;;;;;;4.13;64.36;100250.84;10427808;28;20057;-59
2023/10/17 02:57:41;;;;;;;2.97;1.85;;;;;;;4.19;64.33;100251.50;10428279;28;20052;-59
2023/10/17 03:02:48;;;;;;;4.88;1.75;;;;;;;4.33;64.30;100249.38;10441297;28;20140;-59
2023/10/17 03:07:51;;;;;;;3.92;2.20;;;;;;;4.35;64.15;100242.41;10424565;28;20132;-59
2023/10/17 03:12:55;;;;;;;4.40;1.95;;;;;;;4.29;64.48;100241.75;10393640;28;20049;-59
2023/10/17 03:18:00;;;;;;;5.25;2.75;;;;;;;4.40;64.36;100234.50;10422947;28;20151;-59
2023/10/17 03:23:05;;;;;;;5.32;2.35;;;;;;;4.55;64.05;100236.66;10402040;28;20517;-59
2023/10/17 03:28:08;;;;;;;3.95;2.10;;;;;;;4.46;64.05;100217.03;10427927;28;20143;-59
2023/10/17 03:33:14;;;;;;;4.38;2.20;;;;;;;4.34;64.49;100220.00;10426963;28;20114;-59
2023/10/17 03:38:17;;;;;;;4.60;2.33;;;;;;;4.48;64.41;100214.41;10395286;28;20423;-59
2023/10/17 03:43:29;;;;;;;3.83;2.35;;;;;;;4.57;64.01;100212.41;10391810;28;20143;-59
2023/10/17 03:48:39;;;;;;;4.90;2.22;;;;;;;4.52;63.98;100211.69;10428361;28;20052;-59
2023/10/17 03:53:42;;;;;;;5.65;2.22;;;;;;;4.54;64.08;100215.06;10426494;28;20049;-59
2023/10/17 03:59:18;;;;;;;5.55;2.10;;;;;;;4.67;63.99;100211.22;10426243;28;20076;-59
2023/10/17 04:04:35;;;;;;;4.45;1.98;;;;;;;4.78;63.87;100228.16;10439908;28;20490;-59
2023/10/17 04:14:59;;;;;;;6.43;2.90;;;;;;;4.78;63.76;100228.16;10428121;28;20061;-59
2023/10/17 04:20:16;;;;;;;4.03;2.30;;;;;;;4.84;63.85;100228.78;10406852;28;20076;-59
2023/10/17 04:25:34;;;;;;;5.30;2.45;;;;;;;4.70;63.57;100247.38;10425888;28;20914;-59
2023/10/17 04:30:46;;;;;;;6.22;2.28;;;;;;;4.72;63.79;100254.25;10424273;28;20041;-58
2023/10/17 04:35:55;;;;;;;;;;;;;;;4.72;64.18;100239.53;10427376;28;20448;-59
2023/10/17 04:46:26;;;;;;;3.65;2.17;;;;;;;4.86;63.58;100232.19;10393443;28;20305;-59
2023/10/17 04:51:31;;;;;;;5.13;2.45;;;;;;;4.80;63.52;100210.81;10424028;28;20049;-59
2023/10/17 05:02:14;;;;;;;6.37;2.93;;;;;;;4.62;63.69;100197.53;10406734;28;20040;-59
2023/10/17 05:07:20;;;;;;;5.00;2.53;;;;;;;4.64;64.02;100202.66;10423517;28;20045;-59
2023/10/17 06:16:53;;;;;;;3.83;2.10;;;;;;;4.59;64.21;100210.59;10401611;28;20118;-59
2023/10/17 06:27:13;;;;;;;3.60;1.90;;;;;;;4.75;64.39;100228.25;10421165;28;20076;-59
2023/10/17 06:37:36;;;;;;;5.85;2.53;;;;;;;4.88;63.79;100226.97;10419215;28;20045;-59
2023/10/17 06:42:39;;;;;;;4.45;2.50;;;;;;;4.92;64.05;100216.47;10423831;28;20056;-59
2023/10/17 06:47:50;;;;;;;6.63;2.78;;;;;;;5.02;64.00;100228.22;10426581;28;20049;-60
2023/10/17 06:57:57;;;;;;;3.92;2.50;;;;;;;5.26;63.47;100209.28;10430064;28;20209;-59
2023/10/17 07:02:59;;;;;;;4.75;2.70;;;;;;;5.35;63.71;100213.31;10412671;28;20463;-59
2023/10/17 07:08:02;;;;;;;4.20;2.47;;;;;;;5.61;63.49;100231.41;10427544;28;20044;-59
2023/10/17 07:13:42;;;;;;;3.88;2.08;;;;;;;5.82;63.20;100241.00;10402237;28;20346;-60
2023/10/17 07:18:51;;;;;;;4.90;2.80;;;;;;;5.91;63.04;100250.22;10426362;28;20045;-59
2023/10/17 07:23:54;;;;;;;4.88;2.65;;;;;;;6.02;62.80;100250.72;10416183;28;20082;-59
2023/10/17 07:28:57;;;;;;;6.25;2.47;;;;;;;6.10;62.52;100252.09;10407849;28;20155;-59
2023/10/17 07:39:29;;;;;;;5.75;2.75;;;;;;;6.42;62.80;100261.34;10427025;28;20041;-59
2023/10/17 07:44:34;;;;;;;3.45;2.17;;;;;;;6.76;62.27;100253.09;10426581;28;20049;-59
2023/10/17 07:49:42;;;;;;;4.32;2.22;;;;;;;6.83;61.81;100251.97;10426912;28;20490;-59
2023/10/17 07:55:17;;;;;;;4.53;2.35;;;;;;;6.82;61.76;100239.84;10391354;28;20045;-60
2023/10/17 08:00:26;;;;;;;5.32;2.50;;;;;;;6.81;61.97;100239.03;10426611;28;20045;-60
2023/10/17 08:05:44;;;;;;;4.38;2.53;;;;;;;6.99;61.71;100234.84;10427527;28;20056;-60
2023/10/17 08:10:47;;;;;;;5.18;2.30;;;;;;;6.81;61.81;100230.38;10429208;28;20045;-60
2023/10/17 08:15:55;;;;;;;5.32;2.83;;;;;;;6.87;61.71;100224.94;10427860;28;20052;-61
2023/10/17 08:26:10;;;;;;;4.47;2.67;;;;;;;7.05;61.96;100232.00;10428584;28;20544;-60
2023/10/17 08:36:42;;;;;;;5.10;2.80;;;;;;;7.13;61.93;100235.13;10427562;28;20041;-60
2023/10/17 08:41:44;;;;;;;6.40;2.45;;;;;;;7.42;61.36;100239.13;10427767;28;20057;-61
2023/10/17 08:46:47;;;;;;;4.80;2.30;;;;;;;7.77;61.15;100239.31;10440162;28;20037;-61
2023/10/17 08:51:49;;;;;;;4.53;2.30;;;;;;;7.75;60.75;100230.72;10421112;28;20213;-60
2023/10/17 08:56:51;;;;;;;5.15;2.17;;;;;;;7.95;60.43;100224.66;10424421;28;20060;-61
2023/10/17 09:02:48;;;;;;;4.00;2.30;;;;;;;8.37;59.64;100227.09;10426545;28;20588;-61
2023/10/17 09:07:42;;;;;;;3.72;2.13;;;;;;;8.47;59.88;100215.31;10410096;28;20048;-61
2023/10/17 09:13:14;;;;;;;3.15;1.88;;;;;;;8.74;59.35;100221.88;10426045;28;20311;-61
2023/10/17 09:18:08;;;;;;;4.68;2.75;;;;;;;8.87;58.81;100220.38;10426146;28;20545;-61
2023/10/17 09:23:26;;;;;;;3.90;2.05;;;;;;;8.86;57.53;100210.84;10424755;28;20516;-61
2023/10/17 09:28:28;;;;;;;5.43;2.45;;;;;;;9.06;58.21;100207.25;10426289;28;20057;-60
2023/10/17 09:33:31;;;;;;;3.10;1.80;;;;;;;9.20;57.60;100210.06;10407123;28;20608;-61
2023/10/17 09:38:34;;;;;;;3.95;1.90;;;;;;;9.16;57.21;100206.72;10425253;28;20067;-60
2023/10/17 09:43:38;;;;;;;10.00;1.80;;;;;;;9.14;56.28;100203.34;10440788;28;20055;-60
2023/10/17 09:48:46;;;;;;;2.97;1.63;;;;;;;9.24;55.86;100199.38;10405329;28;20041;-61
2023/10/17 09:53:54;;;;;;;2.75;1.60;;;;;;;9.22;55.91;100197.78;10405742;28;20061;-61
2023/10/17 09:59:02;;;;;;;3.65;2.00;;;;;;;9.32;55.85;100196.38;10424692;28;20045;-61
2023/10/17 10:04:07;;;;;;;5.25;1.85;;;;;;;9.24;56.43;100194.16;10425153;28;20584;-61
2023/10/17 10:09:17;;;;;;;2.00;1.40;;;;;;;9.60;56.05;100201.88;10423857;28;20065;-61
2023/10/17 10:14:30;;;;;;;2.92;1.55;;;;;;;9.62;55.15;100187.84;10424931;28;20075;-60
2023/10/17 10:19:53;;;;;;;2.22;1.30;;;;;;;9.44;54.17;100187.94;10426052;28;20053;-60
2023/10/17 10:25:04;;;;;;;2.72;1.58;;;;;;;9.59;54.72;100180.16;10427505;28;20963;-60
2023/10/17 10:30:29;;;;;;;3.63;1.88;;;;;;;9.38;54.88;100175.19;10431949;28;20129;-61
2023/10/17 10:35:34;;;;;;;3.42;1.85;;;;;;;9.18;54.95;100180.59;10432993;28;20499;-61
2023/10/17 10:40:40;;;;;;;3.10;1.80;;;;;;;9.10;55.81;100169.66;10431516;28;20397;-61
2023/10/17 10:45:50;;;;;;;3.00;1.48;;;;;;;9.10;55.72;100154.00;10431751;28;20412;-60
2023/10/17 10:50:56;;;;;;;2.03;1.40;;;;;;;9.13;55.63;100139.06;10429916;28;20203;-60
2023/10/17 10:56:03;;;;;;;4.65;2.03;;;;;;;9.32;55.56;100131.97;10412855;28;20044;-60
2023/10/17 11:01:07;;;;;;;4.68;1.95;;;;;;;9.75;54.98;100138.44;10430493;28;20041;-61
2023/10/17 11:06:10;;;;;;;3.55;1.75;;;;;;;10.45;54.22;100138.06;10432173;28;20045;-61
2023/10/17 11:11:15;;;;;;;3.15;1.52;;;;;;;10.32;53.33;100135.28;10431197;28;20055;-60
2023/10/17 11:16:21;;;;;;;3.47;1.50;;;;;;;10.50;52.94;100121.19;10432345;28;20049;-60
2023/10/17 11:21:24;;;;;;;2.80;1.60;;;;;;;10.31;52.10;100117.06;10431995;28;20130;-60
2023/10/17 11:26:30;;;;;;;2.53;1.35;;;;;;;10.37;52.99;100108.88;10422168;28;20784;-61
2023/10/17 11:31:32;;;;;;;2.00;1.20;;;;;;;10.25;52.00;100104.34;10437102;28;20420;-61
2023/10/17 11:36:51;;;;;;;3.10;1.58;;;;;;;10.28;52.76;100102.41;10395743;28;20057;-61
2023/10/17 11:41:54;;;;;;;2.33;1.48;;;;;;;10.47;52.82;100092.59;10412746;28;20076;-62
2023/10/17 11:47:05;;;;;;;3.50;1.60;;;;;;;10.63;52.84;100083.88;10429040;28;20044;-61
2023/10/17 11:52:09;;;;;;;6.17;2.33;;;;;;;10.67;51.28;100070.53;10429112;28;20600;-61
2023/10/17 11:57:14;;;;;;;3.50;1.75;;;;;;;10.78;51.88;100070.75;10411875;28;20049;-62
2023/10/17 12:02:17;;;;;;;3.70;1.85;;;;;;;10.84;50.52;100067.78;10430035;28;20118;-61
2023/10/17 12:07:19;;;;;;;4.25;2.10;;;;;;;10.83;50.98;100054.78;10428894;28;20052;-62
2023/10/17 12:12:22;;;;;;;4.00;1.58;;;;;;;10.99;51.21;100048.53;10429154;28;20135;-61
2023/10/17 12:17:25;;;;;;;5.07;1.60;;;;;;;11.10;50.21;100046.19;10428872;28;20126;-62
2023/10/17 12:22:27;;;;;;;5.40;2.22;;;;;;;11.21;50.22;100048.97;10428172;28;20131;-61
2023/10/17 12:27:29;;;;;;;6.22;1.92;;;;;;;11.21;47.40;100051.59;10426571;28;20075;-61
2023/10/17 12:32:31;;;;;;;4.15;2.10;;;;;;;11.43;48.76;100024.09;10444766;28;20457;-61
2023/10/17 12:37:43;;;;;;;5.07;2.28;;;;;;;11.20;46.99;100021.13;10427379;28;20044;-61
2023/10/17 12:42:49;;;;;;;4.82;2.28;;;;;;;11.62;48.36;100017.63;10441670;28;20047;-61
2023/10/17 12:47:51;;;;;;;4.13;2.28;;;;;;;11.74;47.34;100021.28;10427735;28;20049;-62
2023/10/17 12:52:53;;;;;;;5.50;2.17;;;;;;;11.82;46.46;100006.75;10409360;28;20140;-62
2023/10/17 12:57:57;;;;;;;3.75;1.88;;;;;;;11.94;46.59;100016.44;10426432;28;20040;-61
2023/10/17 13:02:59;;;;;;;2.80;1.55;;;;;;;12.09;46.96;100007.59;10425406;28;21775;-62
2023/10/17 13:08:01;;;;;;;3.00;1.90;;;;;;;12.17;46.23;100006.25;10426742;28;20052;-61
2023/10/17 13:13:03;;;;;;;3.92;1.60;;;;;;;12.23;46.15;99990.13;10408601;28;20057;-62
2023/10/17 13:18:07;;;;;;;2.35;1.33;;;;;;;12.20;45.59;99995.56;10429585;28;20464;-62
2023/10/17 13:23:11;;;;;;;1.83;1.10;;;;;;;12.35;44.06;99984.09;10407504;28;20044;-61
2023/10/17 13:28:13;;;;;;;3.45;1.30;;;;;;;12.41;43.95;99984.56;10425668;28;20126;-60
2023/10/17 13:33:15;;;;;;;4.68;1.40;;;;;;;12.60;43.77;99971.06;10412055;28;20139;-60
2023/10/17 13:38:17;;;;;;;4.13;1.35;;;;;;;12.65;42.83;99964.53;10422852;28;20047;-61
2023/10/17 13:43:19;;;;;;;2.35;1.58;;;;;;;12.76;44.42;99956.75;10426028;28;20041;-61
2023/10/17 13:48:21;;;;;;;1.92;1.05;;;;;;;12.73;43.46;99940.41;10423896;28;20067;-61
2023/10/17 13:53:23;;;;;;;1.92;1.10;;;;;;;12.76;42.93;99933.13;10424728;28;20044;-61
2023/10/17 13:58:25;;;;;;;1.92;1.13;;;;;;;12.91;42.51;99928.63;10425367;28;20051;-61
2023/10/17 14:03:27;;;;;;;2.10;1.00;;;;;;;12.85;42.88;99927.28;10425651;28;20052;-61
2023/10/17 14:08:34;;;;;;;2.17;1.40;;;;;;;12.87;42.95;99928.00;10425434;28;20045;-61
2023/10/17 14:13:38;;;;;;;1.58;0.80;;;;;;;12.87;43.48;99928.00;10398562;28;20036;-61
2023/10/17 14:24:27;;;;;;;1.30;0.90;;;;;;;12.81;41.34;99925.81;10424636;28;20415;-61
2023/10/17 14:29:29;;;;;;;0.77;0.70;;;;;;;12.71;42.61;99935.25;10390584;28;20509;-62
2023/10/17 14:34:32;;;;;;;2.13;1.05;;;;;;;12.67;42.64;99931.16;10424217;28;20416;-61
2023/10/17 14:39:36;;;;;;;1.02;0.80;;;;;;;12.73;43.18;99919.41;10425411;28;20052;-61
2023/10/17 14:44:41;;;;;;;2.22;1.20;;;;;;;12.53;42.74;99918.16;10422932;28;20171;-60
2023/10/17 14:49:46;;;;;;;3.20;1.40;;;;;;;12.47;42.82;99913.31;10390594;28;20535;-61
2023/10/17 14:54:48;;;;;;;2.67;1.10;;;;;;;12.41;43.31;99905.88;10392036;28;20049;-61
2023/10/17 14:59:50;;;;;;;3.17;1.27;;;;;;;12.16;43.08;99911.03;10422488;28;20037;-61
2023/10/17 15:04:52;;;;;;;2.58;1.13;;;;;;;12.12;44.10;99902.53;10426675;28;20568;-61
2023/10/17 15:09:55;;;;;;;1.67;0.75;;;;;;;12.06;44.07;99907.34;10432491;28;20040;-61
2023/10/17 15:14:57;;;;;;;1.40;1.00;;;;;;;11.99;43.94;99906.03;10431337;28;20140;-61
2023/10/17 15:19:59;;;;;;;4.13;1.50;;;;;;;11.95;43.30;99900.19;10420459;28;20116;-60
2023/10/17 15:25:01;;;;;;;1.42;0.93;;;;;;;11.85;43.62;99908.75;10427031;28;20055;-60
2023/10/17 15:30:03;;;;;;;1.10;0.77;;;;;;;11.85;44.11;99917.44;10429911;28;20056;-60
2023/10/17 15:35:13;;;;;;;1.90;1.02;;;;;;;11.66;42.78;99910.88;10427124;28;20428;-60
2023/10/17 15:40:19;;;;;;;1.23;0.90;;;;;;;11.68;44.04;99907.22;10427101;28;20037;-60
2023/10/17 15:45:22;;;;;;;4.35;1.50;;;;;;;11.53;44.48;99907.34;10428253;28;20041;-60
2023/10/17 15:50:25;;;;;;;2.40;0.98;;;;;;;11.44;44.75;99905.34;10426825;28;20040;-60
2023/10/17 15:55:27;;;;;;;1.25;1.10;;;;;;;11.24;45.37;99901.34;10429365;28;20225;-60
2023/10/17 16:00:29;;;;;;;2.33;1.23;;;;;;;10.99;45.95;99911.66;10407467;28;20051;-60
2023/10/17 16:05:31;;;;;;;1.67;0.77;;;;;;;10.82;46.14;99919.69;10429540;28;20045;-60
2023/10/17 16:10:34;;;;;;;1.88;1.20;;;;;;;10.68;46.05;99922.28;10408504;28;20052;-60
2023/10/17 16:15:37;;;;;;;1.98;1.30;;;;;;;10.52;46.34;99925.00;10424927;28;20102;-60
2023/10/17 16:20:41;;;;;;;1.05;0.95;;;;;;;10.29;46.95;99930.72;10425140;28;20568;-60
2023/10/17 16:25:48;;;;;;;1.52;0.93;;;;;;;10.07;47.52;99920.69;10388093;28;20378;-60
2023/10/17 16:30:51;;;;;;;2.00;0.85;;;;;;;9.90;47.90;99919.94;10420443;28;20057;-60
2023/10/17 16:36:01;;;;;;;1.58;0.90;;;;;;;9.70;48.86;99926.31;10422727;28;20552;-60
2023/10/17 16:41:03;;;;;;;2.67;0.98;;;;;;;9.58;48.54;99933.00;10396872;28;20522;-60
2023/10/17 16:46:10;;;;;;;1.73;0.93;;;;;;;9.43;49.20;99931.25;10423045;28;20052;-60
2023/10/17 16:51:18;;;;;;;1.20;0.80;;;;;;;9.35;49.73;99943.03;10421009;28;20087;-60
2023/10/17 16:56:21;;;;;;;1.15;0.90;;;;;;;9.28;49.75;99946.94;10420292;28;20060;-60
2023/10/17 17:01:24;;;;;;;1.65;1.00;;;;;;;9.12;50.38;99952.13;10421635;28;20059;-60
2023/10/17 17:06:32;;;;;;;5.53;2.50;;;;;;;8.94;51.06;99947.88;10420671;28;20606;-60
2023/10/17 17:11:39;;;;;;;6.15;2.67;;;;;;;8.79;51.62;99946.91;10406159;28;20056;-60
2023/10/17 17:16:54;;;;;;;7.15;4.00;;;;;;;8.69;52.17;99944.84;10417358;28;21003;-60
2023/10/17 17:21:57;;;;;;;8.77;4.47;;;;;;;8.57;51.89;99935.06;10415763;28;20079;-60
2023/10/17 17:27:00;;;;;;;8.55;4.13;;;;;;;8.43;52.07;99943.59;10416784;28;20132;-60
2023/10/17 17:32:02;;;;;;;5.35;2.80;;;;;;;8.35;52.38;99950.94;10414425;28;20053;-59
2023/10/17 17:37:05;;;;;;;3.80;2.05;;;;;;;8.31;52.46;99953.78;10421047;28;20602;-60
2023/10/17 17:42:07;;;;;;;4.20;2.35;;;;;;;8.24;53.05;99957.63;10421081;28;20102;-60
2023/10/17 17:47:09;;;;;;;4.93;2.40;;;;;;;8.10;53.41;99958.28;10414995;28;20131;-60
2023/10/17 17:52:12;;;;;;;7.13;3.25;;;;;;;7.92;54.14;99953.94;10416868;28;20382;-60
2023/10/17 17:57:14;;;;;;;8.50;3.33;;;;;;;7.79;54.52;99961.50;10419719;28;20049;-60
2023/10/17 18:02:19;;;;;;;4.40;2.30;;;;;;;7.65;55.00;99960.50;10416902;28;20505;-60
2023/10/17 18:07:21;;;;;;;4.95;2.55;;;;;;;7.57;55.11;99965.22;10417986;28;20124;-60
2023/10/17 18:12:26;;;;;;;3.25;1.77;;;;;;;7.46;55.29;99960.50;10418691;28;20146;-60
2023/10/17 18:17:28;;;;;;;2.97;1.83;;;;;;;7.34;55.55;99958.47;10417648;28;20362;-59
2023/10/17 18:22:30;;;;;;;3.35;1.90;;;;;;;7.26;55.80;99950.19;10416214;28;20041;-59
2023/10/17 18:27:32;;;;;;;3.38;2.10;;;;;;;7.17;56.13;99953.19;10415884;28;20053;-60
2023/10/17 18:32:35;;;;;;;5.82;2.05;;;;;;;7.12;56.23;99942.19;10418911;28;20049;-59
2023/10/17 18:37:41;;;;;;;5.57;2.63;;;;;;;7.07;56.43;99949.31;10419362;28;20045;-59
2023/10/17 18:42:43;;;;;;;7.45;2.90;;;;;;;6.95;56.77;99947.28;10424944;28;20408;-59
2023/10/17 18:47:46;;;;;;;6.13;2.10;;;;;;;6.89;56.82;99951.00;10421163;28;20041;-59
2023/10/17 18:52:48;;;;;;;3.30;2.00;;;;;;;6.85;56.89;99941.66;10429973;28;20045;-59
2023/10/17 18:57:50;;;;;;;5.72;2.20;;;;;;;6.77;57.03;99942.91;10426779;28;20037;-59
2023/10/17 19:02:52;;;;;;;5.28;2.20;;;;;;;6.72;57.19;99950.03;10426866;28;20163;-60
2023/10/17 19:07:54;;;;;;;4.18;2.15;;;;;;;6.60;56.89;99941.03;10425479;28;20127;-59
2023/10/17 19:12:56;;;;;;;4.00;2.22;;;;;;;6.51;57.17;99935.41;10410695;28;20728;-59
2023/10/17 19:17:58;;;;;;;4.25;2.35;;;;;;;6.48;57.57;99938.09;10424991;28;20055;-59
2023/10/17 19:23:01;;;;;;;4.82;2.60;;;;;;;6.38;57.83;99935.06;10410208;28;20378;-59
2023/10/17 19:28:04;;;;;;;3.60;2.10;;;;;;;6.31;57.93;99934.47;10420404;28;20025;-60
2023/10/17 19:33:07;;;;;;;7.53;3.78;;;;;;;6.25;57.95;99929.53;10426443;28;20045;-59
2023/10/17 19:38:09;;;;;;;5.97;3.30;;;;;;;5.97;57.91;99930.72;10412972;28;20049;-59
2023/10/17 19:43:12;;;;;;;7.70;3.70;;;;;;;5.88;58.32;99937.13;10406215;28;20045;-59
2023/10/17 19:48:14;;;;;;;4.75;2.50;;;;;;;5.91;58.42;99933.56;10401825;28;20056;-59
2023/10/17 19:53:16;;;;;;;8.98;3.40;;;;;;;5.87;58.55;99932.00;10421400;28;20053;-59
2023/10/17 19:58:18;;;;;;;10.35;4.00;;;;;;;5.69;58.45;99931.00;10423499;28;20045;-59
2023/10/17 20:03:20;;;;;;;8.75;3.80;;;;;;;5.37;58.83;99927.06;10424898;28;20085;-59
2023/10/17 20:08:22;;;;;;;5.03;2.95;;;;;;;5.25;59.22;99913.72;10424965;28;20060;-59
2023/10/17 20:13:25;;;;;;;6.13;2.75;;;;;;;5.34;59.41;99924.59;10424147;28;20041;-59
2023/10/17 20:18:27;;;;;;;7.15;2.83;;;;;;;5.43;59.57;99918.22;10422911;28;20521;-59
2023/10/17 20:23:30;;;;;;;7.32;3.10;;;;;;;5.43;59.54;99903.47;10422878;28;20049;-59
2023/10/17 20:28:32;;;;;;;6.45;3.00;;;;;;;5.27;59.50;99906.72;10427455;28;20059;-59
2023/10/17 20:33:34;;;;;;;6.95;3.33;;;;;;;5.26;59.86;99910.22;10426369;28;20099;-59
2023/10/17 20:38:36;;;;;;;6.43;2.80;;;;;;;5.31;59.92;99900.53;10409091;28;20382;-59
2023/10/17 20:43:38;;;;;;;5.85;2.85;;;;;;;5.15;60.04;99905.44;10426988;28;20500;-59
2023/10/17 20:48:40;;;;;;;5.03;2.60;;;;;;;5.19;60.14;99899.25;10424564;28;20052;-59
2023/10/17 20:53:44;;;;;;;9.85;3.33;;;;;;;5.16;60.08;99893.34;10426457;28;20053;-59
2023/10/17 20:58:46;;;;;;;6.07;3.45;;;;;;;5.10;60.16;99889.25;10425886;28;20029;-59
2023/10/17 21:03:54;;;;;;;7.00;3.22;;;;;;;5.07;60.45;99893.69;10404231;28;20064;-59
2023/10/17 21:08:57;;;;;;;7.57;3.70;;;;;;;4.86;60.30;99890.13;10423863;28;20037;-58
2023/10/17 21:14:01;;;;;;;7.85;3.88;;;;;;;4.73;60.57;99883.75;10425825;28;20051;-59
2023/10/17 21:19:09;;;;;;;6.72;3.15;;;;;;;4.80;60.81;99874.81;10425217;28;20048;-59
2023/10/17 21:24:14;;;;;;;8.80;3.70;;;;;;;4.86;60.88;99868.59;10424910;28;20044;-59
2023/10/17 21:29:16;;;;;;;11.38;3.10;;;;;;;4.88;60.47;99859.88;10421449;28;20516;-59
2023/10/17 21:34:19;;;;;;;8.18;3.85;;;;;;;4.59;60.90;99860.09;10422553;28;20057;-59
2023/10/17 21:39:21;;;;;;;6.80;3.72;;;;;;;4.53;61.03;99862.91;10424581;28;20281;-59
2023/10/17 21:44:23;;;;;;;5.43;2.78;;;;;;;4.51;61.21;99864.69;10424410;28;20460;-59
2023/10/17 21:49:26;;;;;;;6.90;3.38;;;;;;;4.46;61.24;99866.59;10417338;28;20048;-59
2023/10/17 21:54:29;;;;;;;6.68;3.30;;;;;;;4.25;61.28;99859.63;10423274;28;20059;-59
2023/10/17 21:59:32;;;;;;;8.30;3.20;;;;;;;4.08;61.69;99854.16;10422973;28;20052;-59
2023/10/17 22:04:40;;;;;;;5.85;3.40;;;;;;;4.14;61.90;99851.38;10423052;28;20102;-59
2023/10/17 22:09:43;;;;;;;7.70;3.88;;;;;;;4.24;61.82;99838.06;10422920;28;20060;-59
2023/10/17 22:14:45;;;;;;;5.88;2.72;;;;;;;4.27;61.81;99832.75;10425509;28;20053;-59
2023/10/17 22:19:47;;;;;;;9.80;3.70;;;;;;;4.34;61.69;99828.22;10431278;28;20045;-59
2023/10/17 22:24:49;;;;;;;7.70;2.95;;;;;;;4.43;61.63;99833.06;10408456;28;20056;-59
2023/10/17 22:29:56;;;;;;;6.82;3.20;;;;;;;4.46;61.57;99844.16;10428188;28;20037;-59
2023/10/17 22:34:59;;;;;;;4.82;2.90;;;;;;;4.51;61.48;99836.22;10431540;28;20152;-59
2023/10/17 22:40:01;;;;;;;7.85;4.40;;;;;;;4.39;61.34;99840.06;10431357;28;20469;-59
2023/10/17 22:45:10;;;;;;;9.93;3.60;;;;;;;4.20;61.56;99831.31;10430559;28;20133;-59
2023/10/17 22:50:12;;;;;;;5.05;2.63;;;;;;;4.17;61.75;99815.88;10430860;28;20143;-58
2023/10/17 22:55:15;;;;;;;5.30;2.83;;;;;;;4.23;61.99;99818.22;10430492;28;20072;-59
2023/10/17 23:00:19;;;;;;;7.68;3.45;;;;;;;4.20;61.85;99807.16;10430455;28;20051;-58
2023/10/17 23:05:21;;;;;;;8.23;3.28;;;;;;;4.20;62.05;99804.56;10431303;28;20041;-58
2023/10/17 23:10:24;;;;;;;5.40;2.75;;;;;;;4.28;62.00;99800.81;10430270;28;20056;-58
2023/10/17 23:15:25;;;;;;;7.05;2.88;;;;;;;4.32;61.81;99801.53;10430983;28;20712;-59
2023/10/17 23:20:28;;;;;;;6.10;2.78;;;;;;;4.10;61.92;99801.47;10430179;28;20540;-58
2023/10/17 23:25:32;;;;;;;5.78;2.67;;;;;;;4.11;62.00;99803.13;10428935;28;20053;-58
2023/10/17 23:30:34;;;;;;;4.13;2.35;;;;;;;4.13;61.87;99801.34;10410885;28;20412;-59
2023/10/17 23:35:37;;;;;;;6.82;3.10;;;;;;;4.05;62.07;99792.19;10412713;28;20313;-59
2023/10/17 23:40:39;;;;;;;5.97;2.75;;;;;;;4.07;62.03;99788.63;10411620;28;20044;-59
2023/10/17 23:45:41;;;;;;;8.85;2.47;;;;;;;4.11;62.03;99789.38;10411569;28;20057;-59
2023/10/17 23:50:43;;;;;;;5.68;2.40;;;;;;;4.19;61.98;99779.59;10410990;28;20052;-58
2023/10/17 23:55:44;;;;;;;6.03;2.67;;;;;;;4.14;61.96;99784.94;10429089;28;20497;-59
